Cer senin, cu puțini nori Cirrus
Variabil, cu puțini nori Cirrus și cu unele posibilități de nori de furtună
Ploaie ușoară, posibil furtuni
Ploaie ușoară, posibil furtuni
Ploaie ușoară, posibil furtuni
Ploaie ușoară, posibil furtuni
Ploaie ușoară, posibil furtuni
Ploaie ușoară, posibil furtuni
Ploaie ușoară, posibil furtuni
(°C)
18°
18°
18°
18°
17°
17°
16°
16°
16°
16°
16°
16°
16°
16°
17°
17°
17°
17°
(°C)
16°
16°
16°
15°
15°
15°
16°
16°
17°
ESE
ESE
ESE
E
E
E
E
E
E
(km/h)
16-37
17-32
18-32
17-29
16-29
15-29
14-28
13-26
13-22
(mm)
0
0
0
1.1
0.5
0.6
0.4
0.5
0.1
(%)
18
37
65
34
30
25
30
30
25

Elevația soarelui

/ 21.8°
sun-icon
UV 9
05:53
20:36
Lună plină (172°)
20:55
05:07

METAR pentru Farmington (KFMN)

Ora Condiții Temperatură/
Punctul de rouă
Vânt Vizibilitate Vremea Nori Presiune Schimbă Brut
MVFR 18.3°C / 14.4°C 70º 17kt Gust 27kt. Wind Shift present. 8000m in the Vicinity Thunderstorm Light Rain 3.05mm precipitation Scattered Clouds 3600ft
Scattered Clouds 4700ft
Broken Clouds 5500ft
- KFMN 220010Z 07017G27KT 5SM VCTS -RA SCT036 SCT047 BKN055 18/14 A3011 RMK AO2 PK WND 07027/0001 WSHFT 2356 LTG DSNT NE AND E TSE04 P0012 T01830144
VFR 17.8°C / 14.4°C 10º 9kt Gust 20kt >10km Thunderstorm 0.13mm precipitation Few Clouds 8000ft
Broken Clouds 10000ft
Overcast 12000ft
- KFMN 212327Z 01009G20KT 10SM TS FEW080 BKN100 OVC120 18/14 A3011 RMK AO2 PK WND 12026/2315 LTG DSNT ALQDS RAE14 TSB21 PRESRR P0000 T01780144
VFR 17.2°C / 14.4°C 100º 19kt Gust 25kt >10km in the Vicinity Thunderstorm Light Rain 0.13mm precipitation Few Clouds 7000ft
Scattered Clouds 9000ft
Overcast 11000ft
- KFMN 212302Z 10019G25KT 10SM VCTS -RA FEW070 SCT090 OVC110 17/14 A3006 RMK AO2 LTG DSNT ALQDS P0000 T01720144
VFR 18.3°C / 13.9°C 130º 17kt Gust 26kt >10km Light Rain 4.06mm precipitation Few Clouds 7000ft
Overcast 10000ft
1014 - KFMN 212253Z 13017G26KT 10SM -RA FEW070 OVC100 18/14 A3008 RMK AO2 PK WND 14037/2200 LTG DSNT ALQDS RAE25B47 TSE23 PRESRR SLP140 P0016 T01830139
MVFR 19.4°C / 12.8°C 90º 14kt 4800m Haze 4.06mm precipitation Few Clouds 4500ft
Scattered Clouds 8500ft
Overcast 11000ft
- KFMN 212228Z 09014KT 3SM HZ FEW045 SCT085 OVC110 19/13 A3006 RMK AO2 PK WND 14037/2200 LTG DSNT ALQDS RAE25 TSE23 P0016 T01940128
VFR 25.6°C / 7.8°C 70º variable 040º to 160º 7kt Gust 19kt 9700m Thunderstorm Rain 0.25mm precipitation Few Clouds 6000ft
Overcast 9500ft
1012 - KFMN 212153Z 07007G19KT 040V160 6SM TSRA FEW060 OVC095 26/08 A3006 RMK AO2 PK WND 31026/2138 LTG DSNT E-S RAB21 TSB35 SLP121 P0001 T02560078
VFR 27.8°C / 12.8°C 40º 7kt >10km in the Vicinity Thunderstorm Few Clouds 8000ft
Broken Clouds 10000ft
Broken Clouds 11000ft
- KFMN 212116Z 04007KT 10SM VCTS FEW080 BKN100 BKN110 28/13 A3007 RMK AO2 LTG DSNT SE-SW T02780128
VFR 28.3°C / 12.2°C 140º 10kt >10km - Few Clouds 9000ft 1012 - KFMN 212053Z 14010KT 10SM FEW090 28/12 A3008 RMK AO2 LTG DSNT SW AND W SLP124 T02830122 58024
VFR 29.4°C / 13.3°C 120º 15kt Gust 19kt >10km - Clear 1013 - KFMN 211953Z 12015G19KT 10SM CLR 29/13 A3011 RMK AO2 SLP133 T02940133
VFR 27.8°C / 13.9°C 140º 8kt Gust 18kt >10km - Scattered Clouds 5500ft
Broken Clouds 7000ft
1015 - KFMN 211853Z 14008G18KT 10SM SCT055 BKN070 28/14 A3015 RMK AO2 SLP150 T02780139
VFR 26.1°C / 14.4°C 140º 11kt Gust 22kt >10km - 1015 - KFMN 211753Z AUTO 14011G22KT 10SM 26/14 A3016 RMK AO2 SLP154 6//// T02610144 10267 20161
VFR 25°C / 14.4°C 150º 13kt Gust 22kt >10km - Scattered Clouds 4100ft
Broken Clouds 4800ft
1016 - KFMN 211653Z 15013G22KT 10SM SCT041 BKN048 25/14 A3019 RMK AO2 SLP169 T02500144
VFR 24.4°C / 15.6°C 100º 12kt >10km - Scattered Clouds 3900ft
Scattered Clouds 4800ft
- KFMN 211627Z 10012KT 10SM SCT039 SCT048 24/16 A3019 RMK AO2 T02440156
VFR 23.3°C / 15°C 90º 14kt >10km - Clear 1018 - KFMN 211553Z 09014KT 10SM CLR 23/15 A3021 RMK AO2 SLP181 T02330150 $
VFR 21.1°C / 13.9°C 100º 14kt >10km - Clear 1018 - KFMN 211453Z 10014KT 10SM CLR 21/14 A3021 RMK AO2 SLP183 T02110139 54000 $
VFR 18.9°C / 13.3°C 100º 12kt >10km - Clear 1018 - KFMN 211353Z 10012KT 10SM CLR 19/13 A3021 RMK AO2 SLP186 T01890133 $
VFR 17.2°C / 12.8°C 70º 9kt >10km - Few Clouds 7000ft 1019 - KFMN 211253Z 07009KT 10SM FEW070 17/13 A3021 RMK AO2 SLP190 T01720128 $
VFR 16.1°C / 12.8°C 100º 11kt >10km - Few Clouds 7000ft 1019 - KFMN 211153Z 10011KT 10SM FEW070 16/13 A3021 RMK AO2 SLP193 60010 70060 T01610128 10172 20161 $
VFR 16.1°C / 13.3°C 70º 12kt >10km - Few Clouds 5000ft
Broken Clouds 6500ft
- KFMN 211053Z AUTO 07012KT 10SM FEW050 BKN065 16/13 RMK AO2 SLPNO T01610133 $
VFR 16.1°C / 13.3°C 80º 11kt >10km - Broken Clouds 8000ft - KFMN 210953Z AUTO 08011KT 10SM BKN080 16/13 RMK AO2 SLPNO T01610133 $
VFR 16.1°C / 13.9°C 70º 8kt >10km - Clear - KFMN 210853Z AUTO 07008KT 10SM CLR 16/14 RMK AO2 SLPNO 60010 T01610139 $
VFR 16.7°C / 14.4°C 50º 5kt >10km 0.13mm precipitation Overcast 7000ft - KFMN 210753Z AUTO 05005KT 10SM OVC070 17/14 RMK AO2 RAE36 SLPNO P0000 T01670144 $
VFR 16.7°C / 14.4°C 80º 12kt >10km Light Rain 2.54mm precipitation Few Clouds 7000ft
Few Clouds 9000ft
Broken Clouds 11000ft
- KFMN 210653Z AUTO 08012KT 10SM -RA FEW070 FEW090 BKN110 17/14 RMK AO2 SLPNO P0010 T01670144 403330167 $
MVFR 17.2°C / 14.4°C 100º 9kt 8000m Rain 1.02mm precipitation Scattered Clouds 4500ft
Overcast 6000ft
- KFMN 210553Z AUTO 10009KT 5SM RA SCT045 OVC060 17/14 RMK AO2 SLPNO P0004 60004 T01720144 10206 20172 $

MVFR

18.3°C / 14.4°C

[Mai mult]
Vânt 70º 17kt Gust 27kt. Wind Shift present.
Vizibilitate 8000m
Vremea in the Vicinity Thunderstorm Light Rain 3.05mm precipitation
Nori Scattered Clouds 3600ft
Scattered Clouds 4700ft
Broken Clouds 5500ft
Presiune
Schimbă -
Brut KFMN 220010Z 07017G27KT 5SM VCTS -RA SCT036 SCT047 BKN055 18/14 A3011 RMK AO2 PK WND 07027/0001 WSHFT 2356 LTG DSNT NE AND E TSE04 P0012 T01830144

VFR

17.8°C / 14.4°C

[Mai mult]
Vânt 10º 9kt Gust 20kt
Vizibilitate >10km
Vremea Thunderstorm 0.13mm precipitation
Nori Few Clouds 8000ft
Broken Clouds 10000ft
Overcast 12000ft
Presiune
Schimbă -
Brut KFMN 212327Z 01009G20KT 10SM TS FEW080 BKN100 OVC120 18/14 A3011 RMK AO2 PK WND 12026/2315 LTG DSNT ALQDS RAE14 TSB21 PRESRR P0000 T01780144

VFR

17.2°C / 14.4°C

[Mai mult]
Vânt 100º 19kt Gust 25kt
Vizibilitate >10km
Vremea in the Vicinity Thunderstorm Light Rain 0.13mm precipitation
Nori Few Clouds 7000ft
Scattered Clouds 9000ft
Overcast 11000ft
Presiune
Schimbă -
Brut KFMN 212302Z 10019G25KT 10SM VCTS -RA FEW070 SCT090 OVC110 17/14 A3006 RMK AO2 LTG DSNT ALQDS P0000 T01720144

VFR

18.3°C / 13.9°C

[Mai mult]
Vânt 130º 17kt Gust 26kt
Vizibilitate >10km
Vremea Light Rain 4.06mm precipitation
Nori Few Clouds 7000ft
Overcast 10000ft
Presiune 1014
Schimbă -
Brut KFMN 212253Z 13017G26KT 10SM -RA FEW070 OVC100 18/14 A3008 RMK AO2 PK WND 14037/2200 LTG DSNT ALQDS RAE25B47 TSE23 PRESRR SLP140 P0016 T01830139

MVFR

19.4°C / 12.8°C

[Mai mult]
Vânt 90º 14kt
Vizibilitate 4800m
Vremea Haze 4.06mm precipitation
Nori Few Clouds 4500ft
Scattered Clouds 8500ft
Overcast 11000ft
Presiune
Schimbă -
Brut KFMN 212228Z 09014KT 3SM HZ FEW045 SCT085 OVC110 19/13 A3006 RMK AO2 PK WND 14037/2200 LTG DSNT ALQDS RAE25 TSE23 P0016 T01940128

VFR

25.6°C / 7.8°C

[Mai mult]
Vânt 70º variable 040º to 160º 7kt Gust 19kt
Vizibilitate 9700m
Vremea Thunderstorm Rain 0.25mm precipitation
Nori Few Clouds 6000ft
Overcast 9500ft
Presiune 1012
Schimbă -
Brut KFMN 212153Z 07007G19KT 040V160 6SM TSRA FEW060 OVC095 26/08 A3006 RMK AO2 PK WND 31026/2138 LTG DSNT E-S RAB21 TSB35 SLP121 P0001 T02560078

VFR

27.8°C / 12.8°C

[Mai mult]
Vânt 40º 7kt
Vizibilitate >10km
Vremea in the Vicinity Thunderstorm
Nori Few Clouds 8000ft
Broken Clouds 10000ft
Broken Clouds 11000ft
Presiune
Schimbă -
Brut KFMN 212116Z 04007KT 10SM VCTS FEW080 BKN100 BKN110 28/13 A3007 RMK AO2 LTG DSNT SE-SW T02780128

VFR

28.3°C / 12.2°C

[Mai mult]
Vânt 140º 10kt
Vizibilitate >10km
Vremea -
Nori Few Clouds 9000ft
Presiune 1012
Schimbă -
Brut KFMN 212053Z 14010KT 10SM FEW090 28/12 A3008 RMK AO2 LTG DSNT SW AND W SLP124 T02830122 58024

VFR

29.4°C / 13.3°C

[Mai mult]
Vânt 120º 15kt Gust 19kt
Vizibilitate >10km
Vremea -
Nori Clear
Presiune 1013
Schimbă -
Brut KFMN 211953Z 12015G19KT 10SM CLR 29/13 A3011 RMK AO2 SLP133 T02940133

VFR

27.8°C / 13.9°C

[Mai mult]
Vânt 140º 8kt Gust 18kt
Vizibilitate >10km
Vremea -
Nori Scattered Clouds 5500ft
Broken Clouds 7000ft
Presiune 1015
Schimbă -
Brut KFMN 211853Z 14008G18KT 10SM SCT055 BKN070 28/14 A3015 RMK AO2 SLP150 T02780139

VFR

26.1°C / 14.4°C

[Mai mult]
Vânt 140º 11kt Gust 22kt
Vizibilitate >10km
Vremea -
Nori
Presiune 1015
Schimbă -
Brut KFMN 211753Z AUTO 14011G22KT 10SM 26/14 A3016 RMK AO2 SLP154 6//// T02610144 10267 20161

VFR

25°C / 14.4°C

[Mai mult]
Vânt 150º 13kt Gust 22kt
Vizibilitate >10km
Vremea -
Nori Scattered Clouds 4100ft
Broken Clouds 4800ft
Presiune 1016
Schimbă -
Brut KFMN 211653Z 15013G22KT 10SM SCT041 BKN048 25/14 A3019 RMK AO2 SLP169 T02500144

VFR

24.4°C / 15.6°C

[Mai mult]
Vânt 100º 12kt
Vizibilitate >10km
Vremea -
Nori Scattered Clouds 3900ft
Scattered Clouds 4800ft
Presiune
Schimbă -
Brut KFMN 211627Z 10012KT 10SM SCT039 SCT048 24/16 A3019 RMK AO2 T02440156

VFR

23.3°C / 15°C

[Mai mult]
Vânt 90º 14kt
Vizibilitate >10km
Vremea -
Nori Clear
Presiune 1018
Schimbă -
Brut KFMN 211553Z 09014KT 10SM CLR 23/15 A3021 RMK AO2 SLP181 T02330150 $

VFR

21.1°C / 13.9°C

[Mai mult]
Vânt 100º 14kt
Vizibilitate >10km
Vremea -
Nori Clear
Presiune 1018
Schimbă -
Brut KFMN 211453Z 10014KT 10SM CLR 21/14 A3021 RMK AO2 SLP183 T02110139 54000 $

VFR

18.9°C / 13.3°C

[Mai mult]
Vânt 100º 12kt
Vizibilitate >10km
Vremea -
Nori Clear
Presiune 1018
Schimbă -
Brut KFMN 211353Z 10012KT 10SM CLR 19/13 A3021 RMK AO2 SLP186 T01890133 $

VFR

17.2°C / 12.8°C

[Mai mult]
Vânt 70º 9kt
Vizibilitate >10km
Vremea -
Nori Few Clouds 7000ft
Presiune 1019
Schimbă -
Brut KFMN 211253Z 07009KT 10SM FEW070 17/13 A3021 RMK AO2 SLP190 T01720128 $

VFR

16.1°C / 12.8°C

[Mai mult]
Vânt 100º 11kt
Vizibilitate >10km
Vremea -
Nori Few Clouds 7000ft
Presiune 1019
Schimbă -
Brut KFMN 211153Z 10011KT 10SM FEW070 16/13 A3021 RMK AO2 SLP193 60010 70060 T01610128 10172 20161 $

VFR

16.1°C / 13.3°C

[Mai mult]
Vânt 70º 12kt
Vizibilitate >10km
Vremea -
Nori Few Clouds 5000ft
Broken Clouds 6500ft
Presiune
Schimbă -
Brut KFMN 211053Z AUTO 07012KT 10SM FEW050 BKN065 16/13 RMK AO2 SLPNO T01610133 $

VFR

16.1°C / 13.3°C

[Mai mult]
Vânt 80º 11kt
Vizibilitate >10km
Vremea -
Nori Broken Clouds 8000ft
Presiune
Schimbă -
Brut KFMN 210953Z AUTO 08011KT 10SM BKN080 16/13 RMK AO2 SLPNO T01610133 $

VFR

16.1°C / 13.9°C

[Mai mult]
Vânt 70º 8kt
Vizibilitate >10km
Vremea -
Nori Clear
Presiune
Schimbă -
Brut KFMN 210853Z AUTO 07008KT 10SM CLR 16/14 RMK AO2 SLPNO 60010 T01610139 $

VFR

16.7°C / 14.4°C

[Mai mult]
Vânt 50º 5kt
Vizibilitate >10km
Vremea 0.13mm precipitation
Nori Overcast 7000ft
Presiune
Schimbă -
Brut KFMN 210753Z AUTO 05005KT 10SM OVC070 17/14 RMK AO2 RAE36 SLPNO P0000 T01670144 $

VFR

16.7°C / 14.4°C

[Mai mult]
Vânt 80º 12kt
Vizibilitate >10km
Vremea Light Rain 2.54mm precipitation
Nori Few Clouds 7000ft
Few Clouds 9000ft
Broken Clouds 11000ft
Presiune
Schimbă -
Brut KFMN 210653Z AUTO 08012KT 10SM -RA FEW070 FEW090 BKN110 17/14 RMK AO2 SLPNO P0010 T01670144 403330167 $

MVFR

17.2°C / 14.4°C

[Mai mult]
Vânt 100º 9kt
Vizibilitate 8000m
Vremea Rain 1.02mm precipitation
Nori Scattered Clouds 4500ft
Overcast 6000ft
Presiune
Schimbă -
Brut KFMN 210553Z AUTO 10009KT 5SM RA SCT045 OVC060 17/14 RMK AO2 SLPNO P0004 60004 T01720144 10206 20172 $

TAF pentru Farmington (KFMN)

From till


From till Wind 110º 14kt. Visibility 8000m. Light Showers Rain . Scattered Clouds 5000ft. Broken Clouds 10000ft.
Temporarly from till Wind 15kt. Gust 25kt. Visibility 4800m. Light Thunderstorm Rain . Broken Clouds 5000ft.
From till Wind 90º 10kt. Visibility 9700m. Light Showers Rain . Scattered Clouds 4000ft. Broken Clouds 10000ft.
With 30% probability, from till Wind 20kt. Gust 30kt. Visibility 9700m. Light Thunderstorm Rain . Overcast 3000ft.
From till Wind 110º 10kt. Visibility 9700m. Scattered Clouds 2000ft. Broken Clouds 10000ft.

Brut: KFMN 212333Z 2200/2224 11014KT 5SM -SHRA SCT050 BKN100 TEMPO 2200/2201 VRB15G25KT 3SM -TSRA BKN050CB FM220500 09010KT 6SM -SHRA SCT040 BKN100 PROB30 2205/2209 VRB20G30KT 6SM -TSRA OVC030CB FM221000 11010KT P6SM SCT020 BKN100

rainNOW: Ploaie nowcasting pentru Farmington și împrejurimi (pe o rază de 25 km)

0.0 mm
0.0 mm
0.0 mm
0.0 mm
0.0 mm
0.0 mm
0.0 mm
0.0 mm
0.0 mm
0.1 mm
0.1 mm
0.1 mm

Radar și nowcast de precipitații pentru Farmington

Burniță
Ușoară
Moderat
Greu
Foarte greu
Grindină

Markerul de locație este plasat în Farmington. Această animație arată radarul de precipitații pentru intervalul de timp selectat, precum și o prognoză 1h. Crucile portocalii indică fulgerele. Date furnizate de nowcast.de (disponibile în SUA, Europa, Australia). Ploaia sau ninsoarea slabă ar putea fi invizibilă pentru radar. Intensitatea precipitațiilor este codificată prin culori, de la turcoaz la roșu.

Imagini satelitare actuale pentru: Farmington, S.U.A.

Markerul cu locaţia este poziţionat pe Farmington. [Mai mult]

Imaginea satelitară în timp real combină lumina vizibilă din timpul zilei cu radiația cu infraroșu din timpul nopții. Pe timp de noapte, imaginea nu este întunecată, deoarece radiația cu infraroșu poate detecta diferențele de temperatură. Din păcate, norii joși și ceața sunt greu de recunoscut față de temperatura de la sol, din această cauză putând fi invizibili pe timp de noapte. Imaginile satelitare Meteosat pentru Europa sunt actualizate în timp real din 5 în 5 minute. Imaginile GOES-16/GOES-17 (America de Nord și de Sud) și Himawari (Asia) sunt actualizate din 10 în 10 minute.

Precipitațiile sunt estimate pe baza radarelor și a sateliților. Estimările de precipitații de la sateliți sunt mai puțin precise pe timp de noapte decât pe timp de zi.

© 2024 meteoblue, NOAA Satellites GOES-16 and EUMETSAT. Datele despre fulgere furnizate de către nowcast.

Mergi sus
×
Bună ziua,
se pare că folosiți un blocant de reclame.

Publicitatea este esențială pentru a menține site-ul nostru gratuit cu detalii și acuratețe unice.

Vă rugăm să whitelist www.meteoblue.com în ad blocker-ul dvs. sau luați în considerare cumpărarea unuia dintre produsele noastre:

Aveți deja un abonament?
Atunci vă rugăm login.